Time;durP1;ratioP1;P1;durP2;ratioP2;P2;SDS_P1;SDS_P2;PMS_P1;PMS_P2;Temp;Humidity;BMP_temperature;BMP_pressure;BME280_temperature;BME280_humidity;BME280_pressure;Samples;Min_cycle;Max_cycle;Signal;HPM_P1;HPM_P2
2022/05/13 00:00:56;;;;;;;;;;;17.70;40.70;;;;;;5074431;28;19960;-89
2022/05/13 00:03:22;;;;;;;;;;;17.80;40.60;;;;;;5074785;28;19920;-88
2022/05/13 00:05:49;;;;;;;;;;;17.80;40.80;;;;;;5074349;28;20419;-88
2022/05/13 00:08:15;;;;;;;;;;;17.80;40.90;;;;;;5076035;28;19935;-88
2022/05/13 00:10:40;;;;;;;;;;;17.80;40.80;;;;;;5075241;28;19921;-88
2022/05/13 00:13:05;;;;;;;;;;;17.80;40.90;;;;;;5078050;28;20360;-89
2022/05/13 00:15:31;;;;;;;;;;;17.70;40.80;;;;;;5068230;28;20267;-88
2022/05/13 00:17:56;;;;;;;;;;;17.80;40.90;;;;;;5076790;28;19912;-88
2022/05/13 00:20:23;;;;;;;;;;;17.80;40.90;;;;;;5077357;28;19951;-88
2022/05/13 00:22:53;;;;;;;;;;;17.80;41.00;;;;;;5062659;28;20394;-88
2022/05/13 00:25:20;;;;;;;;;;;17.80;41.20;;;;;;5069759;28;19920;-88
2022/05/13 00:27:45;;;;;;;;;;;17.80;41.30;;;;;;5078860;28;20006;-88
2022/05/13 00:30:11;;;;;;;;;;;17.90;41.20;;;;;;5077939;28;20364;-89
2022/05/13 00:32:38;;;;;;;;;;;17.90;41.20;;;;;;5079821;28;20346;-88
2022/05/13 00:35:04;;;;;;;;;;;17.90;41.20;;;;;;5077903;28;19916;-87
2022/05/13 00:37:29;;;;;;;;;;;18.00;41.30;;;;;;5091550;28;19924;-89
2022/05/13 00:39:55;;;;;;;;;;;17.90;41.70;;;;;;5091250;28;19993;-89
2022/05/13 00:42:22;;;;;;;;;;;18.00;41.60;;;;;;5077398;28;20757;-88
2022/05/13 00:44:47;;;;;;;;;;;18.00;41.60;;;;;;5077776;28;19920;-88
2022/05/13 00:47:13;;;;;;;;;;;18.00;41.70;;;;;;5077917;28;19912;-88
2022/05/13 00:49:39;;;;;;;;;;;18.10;41.70;;;;;;5078477;28;19993;-89
2022/05/13 00:52:05;;;;;;;;;;;18.00;41.70;;;;;;5077695;28;19966;-89
2022/05/13 00:54:32;;;;;;;;;;;18.10;41.80;;;;;;5074748;28;19912;-89
2022/05/13 00:56:59;;;;;;;;;;;18.10;41.80;;;;;;5074136;28;19983;-89
2022/05/13 00:59:26;;;;;;;;;;;18.10;41.90;;;;;;5072387;28;19913;-89
2022/05/13 01:01:52;;;;;;;;;;;18.10;42.00;;;;;;5074011;28;20336;-89
2022/05/13 01:04:18;;;;;;;;;;;18.10;42.00;;;;;;5077238;28;19928;-89
2022/05/13 01:06:49;;;;;;;;;;;18.10;42.00;;;;;;5072289;28;19967;-89
2022/05/13 01:09:15;;;;;;;;;;;18.00;42.00;;;;;;5089969;28;20004;-89
2022/05/13 01:11:41;;;;;;;;;;;18.00;42.00;;;;;;5075116;28;19960;-88
2022/05/13 01:14:09;;;;;;;;;;;17.90;42.00;;;;;;5092730;28;20563;-87
2022/05/13 01:18:05;;;;;;;;;;;17.80;42.10;;;;;;5090178;28;20309;-89
2022/05/13 01:19:20;;;;;;;;;;;17.80;42.10;;;;;;5077136;28;19927;-89
2022/05/13 01:21:47;;;;;;;;;;;17.70;42.20;;;;;;5075362;28;19920;-90
2022/05/13 01:24:12;;;;;;;;;;;17.70;42.30;;;;;;5076203;28;19921;-90
2022/05/13 01:26:39;;;;;;;;;;;17.60;42.40;;;;;;5075738;28;19918;-89
2022/05/13 01:29:04;;;;;;;;;;;17.70;42.70;;;;;;5073908;28;19923;-90
2022/05/13 01:31:31;;;;;;;;;;;17.70;42.70;;;;;;5075072;28;20629;-88
2022/05/13 01:33:57;;;;;;;;;;;17.70;42.90;;;;;;5077098;28;19982;-88
2022/05/13 01:36:22;;;;;;;;;;;17.70;42.90;;;;;;5077437;28;19916;-87
2022/05/13 01:38:48;;;;;;;;;;;17.70;42.90;;;;;;5077015;28;19920;-89
2022/05/13 01:41:14;;;;;;;;;;;17.70;42.90;;;;;;5073482;28;19928;-88
2022/05/13 01:43:40;;;;;;;;;;;17.60;42.90;;;;;;5074908;28;19917;-88
2022/05/13 01:46:06;;;;;;;;;;;17.50;42.80;;;;;;5074254;28;19912;-88
2022/05/13 01:48:32;;;;;;;;;;;17.40;42.70;;;;;;5076782;28;19919;-88
2022/05/13 01:50:57;;;;;;;;;;;17.30;42.80;;;;;;5076304;28;19897;-88
2022/05/13 01:53:23;;;;;;;;;;;17.20;42.70;;;;;;5075463;28;19917;-88
2022/05/13 01:55:49;;;;;;;;;;;17.10;42.80;;;;;;5071287;28;19916;-88
2022/05/13 01:58:19;;;;;;;;;;;17.00;42.80;;;;;;5074412;28;19978;-88
2022/05/13 02:00:45;;;;;;;;;;;16.80;42.80;;;;;;5075562;28;19920;-88
2022/05/13 02:05:55;;;;;;;;;;;16.70;43.00;;;;;;5066458;28;19958;-88
2022/05/13 02:08:20;;;;;;;;;;;16.40;43.10;;;;;;5075112;28;19928;-89
2022/05/13 02:10:46;;;;;;;;;;;16.30;43.20;;;;;;5077294;28;19913;-88
2022/05/13 02:13:12;;;;;;;;;;;16.20;43.30;;;;;;5076329;28;19916;-88
2022/05/13 02:15:38;;;;;;;;;;;16.20;43.40;;;;;;5065661;28;20353;-88
2022/05/13 02:18:03;;;;;;;;;;;16.10;43.50;;;;;;5068452;28;19928;-89
2022/05/13 02:20:29;;;;;;;;;;;16.10;43.60;;;;;;5071289;28;19962;-88
2022/05/13 02:22:54;;;;;;;;;;;16.10;43.80;;;;;;5073378;28;20007;-89
2022/05/13 02:25:19;;;;;;;;;;;16.00;44.00;;;;;;5076228;28;19934;-89
2022/05/13 02:27:45;;;;;;;;;;;16.00;44.40;;;;;;5075434;28;19970;-88
2022/05/13 02:30:11;;;;;;;;;;;16.00;44.70;;;;;;5065337;28;20002;-89
2022/05/13 02:32:36;;;;;;;;;;;16.00;45.10;;;;;;5064794;28;19924;-88
2022/05/13 02:35:02;;;;;;;;;;;16.00;45.40;;;;;;5073839;28;19901;-88
2022/05/13 02:37:28;;;;;;;;;;;16.00;46.10;;;;;;5075769;28;20352;-89
2022/05/13 02:39:53;;;;;;;;;;;16.10;46.30;;;;;;5069665;28;19978;-88
2022/05/13 02:42:19;;;;;;;;;;;16.20;46.40;;;;;;5072380;28;19916;-89
2022/05/13 02:44:44;;;;;;;;;;;16.20;46.80;;;;;;5074692;28;19943;-88
2022/05/13 02:47:10;;;;;;;;;;;16.30;46.90;;;;;;5074764;28;19948;-89
2022/05/13 02:49:36;;;;;;;;;;;16.30;46.80;;;;;;5075384;28;19912;-88
2022/05/13 02:52:01;;;;;;;;;;;16.40;46.60;;;;;;5076105;28;19917;-89
2022/05/13 02:54:27;;;;;;;;;;;16.40;47.10;;;;;;5075198;28;19912;-90
2022/05/13 02:56:53;;;;;;;;;;;16.40;46.90;;;;;;5074492;28;20010;-88
2022/05/13 02:59:19;;;;;;;;;;;16.50;46.80;;;;;;5074776;28;19917;-89
2022/05/13 03:01:45;;;;;;;;;;;16.50;46.80;;;;;;5074856;28;19978;-88
2022/05/13 03:04:10;;;;;;;;;;;16.50;46.80;;;;;;5076155;28;20095;-88
2022/05/13 03:06:36;;;;;;;;;;;16.50;46.90;;;;;;5074299;28;20035;-88
2022/05/13 03:09:02;;;;;;;;;;;16.50;46.90;;;;;;5076216;28;19924;-89
2022/05/13 03:11:27;;;;;;;;;;;16.50;46.70;;;;;;5074927;28;19951;-89
2022/05/13 03:13:53;;;;;;;;;;;16.50;46.70;;;;;;5076557;28;19920;-89
2022/05/13 03:16:19;;;;;;;;;;;16.50;46.70;;;;;;5074712;28;19919;-89
2022/05/13 03:18:46;;;;;;;;;;;16.50;46.80;;;;;;5074996;28;19917;-88
2022/05/13 03:21:12;;;;;;;;;;;16.50;46.60;;;;;;5075120;28;19924;-88
2022/05/13 03:23:38;;;;;;;;;;;16.50;46.70;;;;;;5073859;28;19917;-89
2022/05/13 03:26:04;;;;;;;;;;;16.60;46.60;;;;;;5075215;28;19935;-88
2022/05/13 03:28:29;;;;;;;;;;;16.60;46.40;;;;;;5077568;28;19959;-89
2022/05/13 03:30:54;;;;;;;;;;;16.60;46.60;;;;;;5074733;28;19916;-89
2022/05/13 03:33:20;;;;;;;;;;;16.60;46.60;;;;;;5075490;28;19986;-89
2022/05/13 03:35:46;;;;;;;;;;;16.50;46.60;;;;;;5070709;28;20418;-89
2022/05/13 03:38:11;;;;;;;;;;;16.50;46.60;;;;;;5075389;28;19921;-88
2022/05/13 03:40:37;;;;;;;;;;;16.50;46.50;;;;;;5073249;28;19928;-89
2022/05/13 03:43:04;;;;;;;;;;;16.50;46.50;;;;;;5076657;28;19916;-89
2022/05/13 03:45:32;;;;;;;;;;;16.50;46.50;;;;;;5076746;28;19920;-88
2022/05/13 03:47:58;;;;;;;;;;;16.40;46.50;;;;;;5078731;28;19925;-89
2022/05/13 03:50:24;;;;;;;;;;;16.40;46.60;;;;;;5078378;28;20011;-90
2022/05/13 03:52:49;;;;;;;;;;;16.40;46.70;;;;;;5076665;28;19940;-88
2022/05/13 03:55:15;;;;;;;;;;;16.40;46.60;;;;;;5076381;28;19916;-89
2022/05/13 03:57:40;;;;;;;;;;;16.40;46.70;;;;;;5074303;28;19928;-89
2022/05/13 04:00:06;;;;;;;;;;;16.50;46.80;;;;;;5070410;28;19931;-88
2022/05/13 04:02:32;;;;;;;;;;;16.50;46.90;;;;;;5081942;28;19921;-89
2022/05/13 04:10:26;;;;;;;;;;;16.70;46.70;;;;;;5078065;28;19972;-89
2022/05/13 04:18:20;;;;;;;;;;;17.00;46.90;;;;;;5078849;28;19967;-89
2022/05/13 04:20:47;;;;;;;;;;;17.20;46.90;;;;;;5078822;28;20344;-90
2022/05/13 04:23:13;;;;;;;;;;;17.40;46.90;;;;;;5062083;28;20320;-89
2022/05/13 04:25:39;;;;;;;;;;;17.70;46.70;;;;;;5080127;28;20555;-88
2022/05/13 04:28:04;;;;;;;;;;;18.00;46.30;;;;;;5081473;28;19912;-89
2022/05/13 04:30:30;;;;;;;;;;;18.10;45.70;;;;;;5100586;28;20398;-90
2022/05/13 04:32:55;;;;;;;;;;;18.20;45.10;;;;;;5100041;28;19915;-90
2022/05/13 04:35:21;;;;;;;;;;;18.30;44.60;;;;;;5098708;28;20015;-90
2022/05/13 04:37:46;;;;;;;;;;;18.30;44.40;;;;;;5081261;28;19995;-91
2022/05/13 04:40:15;;;;;;;;;;;18.30;44.20;;;;;;5062820;28;19971;-90
2022/05/13 04:42:50;;;;;;;;;;;18.30;44.00;;;;;;5080409;28;19989;-91
2022/05/13 04:45:25;;;;;;;;;;;18.30;43.80;;;;;;5063740;28;19938;-90
2022/05/13 04:50:36;;;;;;;;;;;18.30;43.60;;;;;;5080486;28;19927;-90
2022/05/13 04:53:02;;;;;;;;;;;18.30;43.50;;;;;;5081821;28;19921;-89
2022/05/13 04:55:28;;;;;;;;;;;18.30;43.50;;;;;;5078059;28;20566;-90
2022/05/13 04:57:53;;;;;;;;;;;18.40;43.20;;;;;;5078235;28;20013;-90
2022/05/13 05:00:19;;;;;;;;;;;18.50;43.00;;;;;;5079744;28;20011;-88
2022/05/13 05:02:44;;;;;;;;;;;18.50;43.00;;;;;;5078847;28;19989;-90
2022/05/13 05:05:09;;;;;;;;;;;18.80;43.20;;;;;;5080441;28;19940;-90
2022/05/13 05:07:35;;;;;;;;;;;19.30;43.40;;;;;;5078442;28;20003;-90
2022/05/13 05:10:00;;;;;;;;;;;19.80;42.90;;;;;;5078370;28;20007;-90
2022/05/13 05:12:26;;;;;;;;;;;20.20;41.80;;;;;;5079997;28;19999;-90
2022/05/13 05:14:52;;;;;;;;;;;20.30;41.10;;;;;;5081861;28;19917;-90
2022/05/13 05:17:18;;;;;;;;;;;20.50;40.20;;;;;;5078042;28;19916;-90
2022/05/13 05:19:44;;;;;;;;;;;20.40;39.90;;;;;;5078117;28;19916;-90
2022/05/13 05:22:09;;;;;;;;;;;20.40;39.50;;;;;;5079572;28;19901;-90
2022/05/13 05:24:34;;;;;;;;;;;20.30;39.40;;;;;;5078259;28;20010;-90
2022/05/13 05:27:00;;;;;;;;;;;20.20;39.50;;;;;;5079511;28;19912;-90
2022/05/13 05:29:25;;;;;;;;;;;20.10;39.50;;;;;;5078538;28;19916;-90
2022/05/13 05:31:51;;;;;;;;;;;20.20;39.90;;;;;;5078417;28;19934;-90
2022/05/13 05:34:19;;;;;;;;;;;20.20;40.00;;;;;;5078691;28;19913;-90
2022/05/13 05:36:44;;;;;;;;;;;20.40;40.30;;;;;;5078943;28;19958;-90
2022/05/13 05:39:10;;;;;;;;;;;20.70;40.50;;;;;;5077565;28;19912;-90
2022/05/13 05:41:36;;;;;;;;;;;21.10;40.20;;;;;;5077542;28;19920;-89
2022/05/13 05:44:01;;;;;;;;;;;21.40;39.40;;;;;;5078481;28;19916;-90
2022/05/13 05:46:27;;;;;;;;;;;21.60;38.70;;;;;;5079038;28;19913;-91
2022/05/13 05:48:52;;;;;;;;;;;21.80;38.40;;;;;;5077666;28;19974;-91
2022/05/13 05:51:18;;;;;;;;;;;22.30;38.50;;;;;;5078067;28;19923;-90
2022/05/13 05:59:11;;;;;;;;;;;23.00;36.20;;;;;;5078304;28;19935;-90
2022/05/13 06:01:37;;;;;;;;;;;23.00;35.70;;;;;;5072900;28;19921;-90
2022/05/13 06:04:03;;;;;;;;;;;23.00;35.30;;;;;;5083311;28;19919;-90
2022/05/13 06:06:28;;;;;;;;;;;23.10;35.00;;;;;;5076470;28;19952;-90
2022/05/13 06:08:57;;;;;;;;;;;23.10;34.70;;;;;;5077282;28;20364;-91
2022/05/13 06:11:26;;;;;;;;;;;23.00;34.70;;;;;;5077136;28;19916;-91
2022/05/13 06:13:53;;;;;;;;;;;23.10;34.60;;;;;;5078388;28;19912;-90
2022/05/13 06:16:19;;;;;;;;;;;23.00;34.40;;;;;;5076264;28;19917;-90
2022/05/13 06:18:45;;;;;;;;;;;23.00;34.20;;;;;;5078954;28;19912;-90
2022/05/13 06:21:11;;;;;;;;;;;22.90;33.90;;;;;;5080716;28;19946;-90
2022/05/13 06:23:36;;;;;;;;;;;22.80;33.90;;;;;;5080778;28;19917;-90
2022/05/13 06:26:02;;;;;;;;;;;22.70;33.80;;;;;;5085143;28;19916;-90
2022/05/13 06:28:28;;;;;;;;;;;22.60;34.00;;;;;;5085307;28;20287;-90
2022/05/13 06:30:53;;;;;;;;;;;22.40;34.20;;;;;;5086568;28;19917;-91
2022/05/13 06:33:18;;;;;;;;;;;22.30;34.30;;;;;;5087664;28;19932;-91
2022/05/13 06:35:44;;;;;;;;;;;22.20;34.40;;;;;;5093313;28;20307;-90
2022/05/13 06:38:16;;;;;;;;;;;22.10;34.50;;;;;;5081402;28;19919;-89
2022/05/13 06:40:42;;;;;;;;;;;22.00;34.70;;;;;;5088053;28;19942;-91
2022/05/13 06:43:08;;;;;;;;;;;21.90;34.80;;;;;;5084681;28;19919;-90
2022/05/13 06:45:33;;;;;;;;;;;21.80;34.90;;;;;;5090098;28;19985;-90
2022/05/13 06:47:58;;;;;;;;;;;21.80;35.00;;;;;;5090375;28;19947;-89
2022/05/13 06:50:25;;;;;;;;;;;21.80;35.10;;;;;;5090264;28;19916;-89
2022/05/13 06:52:50;;;;;;;;;;;21.70;35.20;;;;;;5087720;28;19912;-89
2022/05/13 06:55:17;;;;;;;;;;;21.60;35.40;;;;;;5089787;28;20000;-90
2022/05/13 06:57:42;;;;;;;;;;;21.60;35.50;;;;;;5085189;28;19900;-90
2022/05/13 07:00:09;;;;;;;;;;;21.50;35.70;;;;;;5090357;28;20011;-90
2022/05/13 07:02:34;;;;;;;;;;;21.60;35.80;;;;;;5085851;28;19966;-90
2022/05/13 07:05:00;;;;;;;;;;;21.60;35.90;;;;;;5086998;28;19901;-89
2022/05/13 07:07:28;;;;;;;;;;;21.50;36.00;;;;;;5103096;28;20006;-89
2022/05/13 07:09:53;;;;;;;;;;;21.50;36.30;;;;;;5091677;28;19920;-89
2022/05/13 07:12:19;;;;;;;;;;;21.30;36.60;;;;;;5084111;28;20007;-89
2022/05/13 07:14:45;;;;;;;;;;;21.30;36.80;;;;;;5089694;28;19904;-90
2022/05/13 07:17:10;;;;;;;;;;;21.30;37.00;;;;;;5082036;28;19980;-89
2022/05/13 07:19:36;;;;;;;;;;;21.40;37.20;;;;;;5081907;28;19963;-90
2022/05/13 07:22:01;;;;;;;;;;;21.40;37.20;;;;;;5076442;28;19916;-89
2022/05/13 07:24:28;;;;;;;;;;;21.50;37.40;;;;;;5080534;28;20010;-89
2022/05/13 07:26:53;;;;;;;;;;;21.60;37.50;;;;;;5081336;28;19919;-89
2022/05/13 07:29:18;;;;;;;;;;;21.70;37.40;;;;;;5083718;28;19916;-89
2022/05/13 07:31:44;;;;;;;;;;;21.80;37.40;;;;;;5081140;28;20268;-89
2022/05/13 07:34:09;;;;;;;;;;;21.80;37.40;;;;;;5078438;28;19913;-89
2022/05/13 07:36:35;;;;;;;;;;;21.80;37.40;;;;;;5081526;28;19912;-89
2022/05/13 07:41:44;;;;;;;;;;;21.80;37.30;;;;;;5075186;28;19927;-90
2022/05/13 07:44:10;;;;;;;;;;;21.90;37.40;;;;;;5077619;28;20364;-90
2022/05/13 07:46:36;;;;;;;;;;;22.00;37.40;;;;;;5080857;28;19913;-91
2022/05/13 07:49:02;;;;;;;;;;;22.10;37.40;;;;;;5060155;28;19955;-90
2022/05/13 07:51:27;;;;;;;;;;;22.30;37.30;;;;;;5091069;28;19943;-90
2022/05/13 07:53:53;;;;;;;;;;;22.40;37.20;;;;;;5089407;28;20020;-88
2022/05/13 07:56:19;;;;;;;;;;;22.60;37.10;;;;;;5089405;28;19919;-89
2022/05/13 07:58:44;;;;;;;;;;;22.80;37.10;;;;;;5085823;28;19946;-90
2022/05/13 08:01:10;;;;;;;;;;;23.10;37.30;;;;;;5085583;28;19924;-90
2022/05/13 08:03:35;;;;;;;;;;;23.50;36.70;;;;;;5078415;28;19963;-89
2022/05/13 08:06:04;;;;;;;;;;;23.80;36.20;;;;;;5089796;28;19923;-91
2022/05/13 08:08:37;;;;;;;;;;;24.00;36.10;;;;;;5081338;28;19924;-90
2022/05/13 08:11:05;;;;;;;;;;;24.40;36.10;;;;;;5087463;28;19913;-91
2022/05/13 08:13:31;;;;;;;;;;;25.00;36.00;;;;;;5079810;28;19924;-90
2022/05/13 08:16:13;;;;;;;;;;;25.70;35.20;;;;;;5086477;28;19912;-90
2022/05/13 08:18:40;;;;;;;;;;;26.40;34.10;;;;;;5081224;28;20284;-90
2022/05/13 08:21:05;;;;;;;;;;;27.30;33.70;;;;;;5082876;28;20018;-91
2022/05/13 08:23:31;;;;;;;;;;;28.20;33.20;;;;;;5079193;28;20339;-89
2022/05/13 08:25:57;;;;;;;;;;;29.10;32.20;;;;;;5088634;28;19974;-89
2022/05/13 08:28:23;;;;;;;;;;;29.90;30.90;;;;;;5081314;28;19987;-90
2022/05/13 08:30:50;;;;;;;;;;;30.60;29.90;;;;;;5089340;28;20276;-89
2022/05/13 08:33:17;;;;;;;;;;;31.30;28.00;;;;;;5083389;28;19928;-89
2022/05/13 08:35:46;;;;;;;;;;;31.90;26.80;;;;;;5092675;28;19919;-89
2022/05/13 08:38:12;;;;;;;;;;;32.30;25.20;;;;;;5086093;28;20338;-89
2022/05/13 08:40:41;;;;;;;;;;;32.70;24.80;;;;;;5085920;28;19927;-89
2022/05/13 08:43:10;;;;;;;;;;;32.90;24.80;;;;;;5080012;28;19923;-89
2022/05/13 08:45:38;;;;;;;;;;;33.30;24.50;;;;;;5089454;28;19912;-88
2022/05/13 08:48:07;;;;;;;;;;;33.70;23.80;;;;;;5106101;28;19916;-89
2022/05/13 08:50:39;;;;;;;;;;;34.10;23.30;;;;;;5089503;28;19912;-90
2022/05/13 08:53:08;;;;;;;;;;;34.50;22.90;;;;;;5089296;28;19916;-89
2022/05/13 08:55:55;;;;;;;;;;;34.90;22.20;;;;;;5087299;28;19939;-89
2022/05/13 08:58:23;;;;;;;;;;;35.20;21.40;;;;;;5082805;28;19920;-89
2022/05/13 09:00:50;;;;;;;;;;;35.30;21.00;;;;;;5088227;28;19931;-89
2022/05/13 09:03:26;;;;;;;;;;;35.40;21.00;;;;;;5087259;28;19918;-89
2022/05/13 09:06:00;;;;;;;;;;;35.70;20.40;;;;;;5088452;28;20032;-89
2022/05/13 09:08:25;;;;;;;;;;;35.90;19.90;;;;;;5090724;28;19958;-89
2022/05/13 09:11:00;;;;;;;;;;;35.80;19.80;;;;;;5088129;28;19916;-89
2022/05/13 09:13:35;;;;;;;;;;;35.40;20.00;;;;;;5083511;28;19920;-89
2022/05/13 09:16:02;;;;;;;;;;;35.00;20.00;;;;;;5090432;28;19964;-89
2022/05/13 09:18:32;;;;;;;;;;;34.70;20.20;;;;;;5079946;28;19966;-89
2022/05/13 09:20:59;;;;;;;;;;;34.50;20.20;;;;;;5093450;28;19927;-89
2022/05/13 09:23:25;;;;;;;;;;;34.10;19.90;;;;;;5081706;28;19970;-90
2022/05/13 09:25:54;;;;;;;;;;;33.60;20.20;;;;;;5085355;28;20377;-89
2022/05/13 09:28:20;;;;;;;;;;;33.20;20.40;;;;;;5094894;28;19934;-89
2022/05/13 09:30:47;;;;;;;;;;;32.80;20.90;;;;;;5093416;28;20003;-88
2022/05/13 09:33:19;;;;;;;;;;;32.50;21.00;;;;;;5083022;28;19916;-90
2022/05/13 09:35:45;;;;;;;;;;;32.10;21.20;;;;;;5097224;28;19924;-89
2022/05/13 09:38:15;;;;;;;;;;;31.80;21.60;;;;;;5086937;28;20396;-89
2022/05/13 09:40:41;;;;;;;;;;;31.80;21.90;;;;;;5096386;28;19939;-90
2022/05/13 09:43:06;;;;;;;;;;;31.60;22.00;;;;;;5090093;28;19912;-89
2022/05/13 09:45:35;;;;;;;;;;;31.60;22.20;;;;;;5089943;28;20715;-89
2022/05/13 09:48:04;;;;;;;;;;;31.70;22.20;;;;;;5086547;28;20573;-87
2022/05/13 09:50:31;;;;;;;;;;;31.50;22.30;;;;;;5090613;28;19921;-90
2022/05/13 09:53:12;;;;;;;;;;;31.40;22.50;;;;;;5089766;28;19919;-90
2022/05/13 09:55:39;;;;;;;;;;;31.20;22.50;;;;;;5110079;28;19916;-90
2022/05/13 09:58:07;;;;;;;;;;;31.00;22.70;;;;;;5086316;28;20006;-90
2022/05/13 10:00:36;;;;;;;;;;;30.90;23.00;;;;;;5087864;28;20391;-90
2022/05/13 10:03:10;;;;;;;;;;;30.80;23.00;;;;;;5102284;28;19921;-89
2022/05/13 10:05:35;;;;;;;;;;;30.70;23.00;;;;;;5086222;28;19973;-90
2022/05/13 10:08:15;;;;;;;;;;;30.40;23.20;;;;;;5083472;28;19960;-89
2022/05/13 10:14:10;;;;;;;;;;;30.20;23.60;;;;;;5090631;28;19937;-90
2022/05/13 10:16:18;;;;;;;;;;;30.40;23.70;;;;;;5078120;28;19916;-89
2022/05/13 10:18:46;;;;;;;;;;;30.50;23.60;;;;;;5083220;28;20283;-91
2022/05/13 10:21:18;;;;;;;;;;;30.40;23.30;;;;;;5085106;28;19932;-90
2022/05/13 10:24:03;;;;;;;;;;;30.10;23.00;;;;;;5076154;28;19974;-90
2022/05/13 10:26:32;;;;;;;;;;;30.00;23.10;;;;;;5089414;28;19912;-89
2022/05/13 10:29:06;;;;;;;;;;;30.20;23.30;;;;;;5089025;28;19928;-90
2022/05/13 10:31:37;;;;;;;;;;;30.30;23.30;;;;;;5080301;28;19900;-90
2022/05/13 10:34:21;;;;;;;;;;;30.40;23.50;;;;;;5083248;28;19908;-89
2022/05/13 10:36:58;;;;;;;;;;;31.00;23.40;;;;;;5095340;28;20294;-89
2022/05/13 10:39:30;;;;;;;;;;;31.90;22.80;;;;;;5092630;28;20374;-90
2022/05/13 10:42:08;;;;;;;;;;;32.20;22.20;;;;;;5091684;28;19979;-89
2022/05/13 10:59:26;;;;;;;;;;;31.00;22.60;;;;;;5099811;28;19947;-89
2022/05/13 11:02:11;;;;;;;;;;;30.90;22.70;;;;;;5108640;28;19927;-89
2022/05/13 11:05:09;;;;;;;;;;;30.60;22.40;;;;;;5104376;28;19912;-89
2022/05/13 11:15:32;;;;;;;;;;;29.70;23.30;;;;;;5081019;28;19924;-89
2022/05/13 11:18:05;;;;;;;;;;;30.10;23.50;;;;;;5063316;28;19931;-88
2022/05/13 11:20:43;;;;;;;;;;;30.70;23.20;;;;;;5068846;28;19921;-88
2022/05/13 11:23:20;;;;;;;;;;;30.90;22.80;;;;;;5054063;28;19991;-90
2022/05/13 11:25:57;;;;;;;;;;;30.90;22.50;;;;;;5073982;28;19920;-91
2022/05/13 11:28:36;;;;;;;;;;;30.70;22.60;;;;;;5077746;28;19962;-90
2022/05/13 11:31:14;;;;;;;;;;;30.50;22.80;;;;;;5069849;28;19928;-88
2022/05/13 11:33:52;;;;;;;;;;;30.20;22.90;;;;;;5065626;28;19913;-88
2022/05/13 11:36:49;;;;;;;;;;;29.80;23.20;;;;;;5072279;28;19920;-89
2022/05/13 11:39:33;;;;;;;;;;;29.60;23.30;;;;;;5079511;28;19916;-89
2022/05/13 11:51:28;;;;;;;;;;;29.90;23.40;;;;;;4933691;29;19937;-88
2022/05/13 11:54:00;;;;;;;;;;;29.90;23.50;;;;;;4991244;28;19929;-88
2022/05/13 11:56:31;;;;;;;;;;;29.90;23.60;;;;;;5039149;28;19913;-88
2022/05/13 11:59:15;;;;;;;;;;;29.80;23.60;;;;;;5056200;28;19920;-89
2022/05/13 12:01:44;;;;;;;;;;;29.80;23.60;;;;;;5048444;28;19920;-88
2022/05/13 12:04:12;;;;;;;;;;;29.90;23.60;;;;;;5053735;28;19916;-88
2022/05/13 12:06:57;;;;;;;;;;;30.40;23.60;;;;;;5076218;28;19923;-87
2022/05/13 12:09:28;;;;;;;;;;;30.90;23.30;;;;;;5070240;28;19980;-90
2022/05/13 12:11:53;;;;;;;;;;;31.10;22.90;;;;;;5060873;28;19932;-89
2022/05/13 12:14:27;;;;;;;;;;;31.10;22.90;;;;;;5059036;28;19992;-89
2022/05/13 12:17:07;;;;;;;;;;;31.20;22.60;;;;;;5072188;28;19912;-88
2022/05/13 12:19:53;;;;;;;;;;;31.30;22.30;;;;;;5068976;28;19968;-89
2022/05/13 12:22:24;;;;;;;;;;;31.40;22.40;;;;;;5058879;28;20073;-89
2022/05/13 12:25:02;;;;;;;;;;;31.60;22.40;;;;;;5071995;28;19924;-89
2022/05/13 12:27:35;;;;;;;;;;;31.90;22.20;;;;;;5078022;28;20361;-90
2022/05/13 12:30:09;;;;;;;;;;;32.20;22.10;;;;;;5057023;28;19919;-89
2022/05/13 12:32:36;;;;;;;;;;;32.20;22.00;;;;;;5055332;28;19944;-88
2022/05/13 12:37:55;;;;;;;;;;;31.80;22.40;;;;;;5072502;28;19967;-90
2022/05/13 12:40:24;;;;;;;;;;;31.80;22.30;;;;;;5071080;28;20332;-88
2022/05/13 12:42:55;;;;;;;;;;;31.80;22.40;;;;;;5054633;28;19920;-89
2022/05/13 12:45:23;;;;;;;;;;;32.30;22.30;;;;;;5078315;28;20268;-89
2022/05/13 12:47:56;;;;;;;;;;;33.20;21.90;;;;;;5075076;28;19916;-89
2022/05/13 12:50:27;;;;;;;;;;;34.00;21.40;;;;;;5057345;28;20427;-92
2022/05/13 12:52:53;;;;;;;;;;;34.30;20.60;;;;;;5079927;28;20635;-89
2022/05/13 12:55:21;;;;;;;;;;;34.50;20.50;;;;;;5069591;28;19913;-89
2022/05/13 12:58:00;;;;;;;;;;;34.80;20.10;;;;;;5065314;28;20286;-92
2022/05/13 13:00:36;;;;;;;;;;;35.10;20.10;;;;;;5051911;28;19920;-88
2022/05/13 13:03:06;;;;;;;;;;;35.50;19.40;;;;;;5076454;28;19956;-89
2022/05/13 13:05:32;;;;;;;;;;;35.40;19.60;;;;;;5070329;28;19916;-89
2022/05/13 13:08:04;;;;;;;;;;;34.90;19.70;;;;;;5060719;28;20299;-89
2022/05/13 13:10:31;;;;;;;;;;;34.40;20.10;;;;;;5062280;28;19912;-89
2022/05/13 13:13:12;;;;;;;;;;;34.00;20.10;;;;;;5081445;28;19930;-89
2022/05/13 13:15:44;;;;;;;;;;;33.80;20.60;;;;;;5069180;28;19913;-90
2022/05/13 13:18:10;;;;;;;;;;;33.50;20.50;;;;;;5068095;28;20319;-90
2022/05/13 13:20:54;;;;;;;;;;;33.20;20.80;;;;;;5085145;28;19931;-90
2022/05/13 13:23:20;;;;;;;;;;;33.10;21.00;;;;;;5070152;28;19966;-89
2022/05/13 13:25:48;;;;;;;;;;;32.90;21.40;;;;;;5065257;28;19944;-88
2022/05/13 13:28:20;;;;;;;;;;;32.70;21.60;;;;;;5075325;28;20268;-89
2022/05/13 13:30:51;;;;;;;;;;;32.60;21.60;;;;;;5065940;28;19934;-89
2022/05/13 13:33:17;;;;;;;;;;;33.00;21.50;;;;;;5075005;28;20743;-89
2022/05/13 13:35:44;;;;;;;;;;;33.60;21.10;;;;;;5072131;28;19938;-89
2022/05/13 13:38:11;;;;;;;;;;;33.80;20.80;;;;;;5072972;28;20007;-89
2022/05/13 13:40:39;;;;;;;;;;;33.40;20.90;;;;;;5064090;28;19925;-89
2022/05/13 13:43:16;;;;;;;;;;;33.40;21.10;;;;;;5076595;28;20021;-88
2022/05/13 13:45:43;;;;;;;;;;;33.80;20.60;;;;;;5061324;28;19920;-89
2022/05/13 13:48:12;;;;;;;;;;;34.10;20.60;;;;;;5071753;28;19996;-88
2022/05/13 13:50:45;;;;;;;;;;;33.90;20.70;;;;;;5056767;28;20349;-88
2022/05/13 13:53:11;;;;;;;;;;;34.00;20.70;;;;;;5080165;28;20202;-89
2022/05/13 13:55:40;;;;;;;;;;;34.40;20.40;;;;;;5064076;28;20392;-89
2022/05/13 13:58:24;;;;;;;;;;;34.40;20.20;;;;;;5082924;28;19920;-89
2022/05/13 14:00:50;;;;;;;;;;;34.70;20.00;;;;;;5050111;28;20244;-89
2022/05/13 14:03:21;;;;;;;;;;;34.70;19.60;;;;;;5075676;28;19912;-89
2022/05/13 14:05:51;;;;;;;;;;;34.40;19.70;;;;;;5064367;28;19921;-88
2022/05/13 14:08:17;;;;;;;;;;;34.20;20.00;;;;;;5067414;28;19956;-88
2022/05/13 14:10:46;;;;;;;;;;;33.80;20.30;;;;;;5098219;28;20468;-88
2022/05/13 14:13:12;;;;;;;;;;;33.80;20.50;;;;;;5076066;28;19908;-89
2022/05/13 14:15:43;;;;;;;;;;;33.60;20.70;;;;;;5059683;28;20031;-89
2022/05/13 14:18:11;;;;;;;;;;;33.30;20.90;;;;;;5060282;28;19913;-89
2022/05/13 14:20:37;;;;;;;;;;;33.10;21.20;;;;;;5067321;28;20006;-89
2022/05/13 14:23:04;;;;;;;;;;;32.80;21.40;;;;;;5063440;28;19921;-89
2022/05/13 14:25:49;;;;;;;;;;;32.40;21.50;;;;;;5068522;28;19999;-90
2022/05/13 14:28:18;;;;;;;;;;;32.10;21.70;;;;;;5068999;28;19917;-90
2022/05/13 14:30:50;;;;;;;;;;;31.70;22.00;;;;;;5076253;28;20042;-89
2022/05/13 14:33:16;;;;;;;;;;;31.40;22.20;;;;;;5073005;28;20367;-89
2022/05/13 14:35:42;;;;;;;;;;;31.20;22.40;;;;;;5058489;28;19941;-89
2022/05/13 14:38:10;;;;;;;;;;;31.00;22.50;;;;;;5071302;28;19919;-88
2022/05/13 14:40:40;;;;;;;;;;;30.90;22.70;;;;;;5054350;28;19920;-89
2022/05/13 14:43:10;;;;;;;;;;;30.80;22.80;;;;;;5080568;28;19930;-89
2022/05/13 14:45:40;;;;;;;;;;;30.70;23.00;;;;;;5067831;28;19928;-90
2022/05/13 14:48:24;;;;;;;;;;;30.60;23.20;;;;;;5085029;28;19927;-90
2022/05/13 14:51:13;;;;;;;;;;;30.50;23.50;;;;;;5056451;28;20313;-90
2022/05/13 14:53:57;;;;;;;;;;;30.30;23.50;;;;;;5070133;28;19923;-89
2022/05/13 14:56:23;;;;;;;;;;;30.20;23.70;;;;;;5071618;28;19977;-89
2022/05/13 14:58:56;;;;;;;;;;;30.10;23.80;;;;;;5085535;28;19939;-88
2022/05/13 15:01:23;;;;;;;;;;;30.10;23.90;;;;;;5070041;28;19936;-89
2022/05/13 15:03:54;;;;;;;;;;;30.00;24.00;;;;;;5066264;28;20283;-89
2022/05/13 15:06:34;;;;;;;;;;;29.90;24.10;;;;;;5094459;28;20003;-90
2022/05/13 15:09:00;;;;;;;;;;;29.90;24.10;;;;;;5069826;28;19923;-90
2022/05/13 15:11:26;;;;;;;;;;;29.90;24.20;;;;;;5071239;28;19916;-89
2022/05/13 15:13:52;;;;;;;;;;;29.90;24.30;;;;;;5065083;28;19925;-89
2022/05/13 15:16:20;;;;;;;;;;;30.00;24.20;;;;;;5063260;28;19920;-90
2022/05/13 15:18:46;;;;;;;;;;;30.00;24.20;;;;;;5082946;28;19916;-89
2022/05/13 15:21:12;;;;;;;;;;;30.00;24.20;;;;;;5092778;28;20333;-89
2022/05/13 15:23:37;;;;;;;;;;;30.00;24.30;;;;;;5065723;28;19926;-90
2022/05/13 15:26:04;;;;;;;;;;;30.00;24.40;;;;;;5079613;28;19951;-90